Time;durP1;ratioP1;P1;durP2;ratioP2;P2;SDS_P1;SDS_P2;PMS_P1;PMS_P2;Temp;Humidity;BMP_temperature;BMP_pressure;BME280_temperature;BME280_humidity;BME280_pressure;Samples;Min_cycle;Max_cycle;Signal;HPM_P1;HPM_P2
2023/03/28 00:02:30;;;;;;;;;;;2.10;99.90;;;;;;8387284;28;19920;-74
2023/03/28 00:06:31;;;;;;;;;;;2.00;99.90;;;;;;8380404;28;19925;-73
2023/03/28 00:10:33;;;;;;;;;;;2.00;99.90;;;;;;8382799;28;20296;-74
2023/03/28 00:14:36;;;;;;;;;;;2.00;99.90;;;;;;8377508;28;19924;-74
2023/03/28 00:18:39;;;;;;;;;;;1.90;99.90;;;;;;8403086;28;19968;-73
2023/03/28 00:22:40;;;;;;;;;;;1.80;99.90;;;;;;8393387;28;19924;-74
2023/03/28 00:26:43;;;;;;;;;;;1.80;99.90;;;;;;8390732;28;19924;-73
2023/03/28 00:30:45;;;;;;;;;;;1.70;99.90;;;;;;8380640;28;20372;-74
2023/03/28 00:34:46;;;;;;;;;;;1.70;99.90;;;;;;8383581;28;19968;-74
2023/03/28 00:38:49;;;;;;;;;;;1.70;99.90;;;;;;8364780;28;19974;-74
2023/03/28 00:42:51;;;;;;;;;;;1.70;99.90;;;;;;8361237;28;19925;-73
2023/03/28 00:46:52;;;;;;;;;;;1.60;99.90;;;;;;8376161;28;20043;-74
2023/03/28 00:50:56;;;;;;;;;;;1.60;99.90;;;;;;8378943;28;19931;-74
2023/03/28 00:54:58;;;;;;;;;;;1.50;99.90;;;;;;8393203;28;19931;-73
2023/03/28 00:59:08;;;;;;;;;;;1.50;99.90;;;;;;8384362;28;20047;-74
2023/03/28 01:03:12;;;;;;;;;;;1.40;99.90;;;;;;8377605;28;19931;-73
2023/03/28 01:07:15;;;;;;;;;;;1.40;99.90;;;;;;8377300;28;19928;-73
2023/03/28 01:11:16;;;;;;;;;;;1.40;99.90;;;;;;8384267;28;20371;-73
2023/03/28 01:15:18;;;;;;;;;;;1.40;99.90;;;;;;8362337;28;20003;-74
2023/03/28 01:19:46;;;;;;;;;;;1.40;99.90;;;;;;8376432;28;19932;-74
2023/03/28 01:23:54;;;;;;;;;;;1.40;99.90;;;;;;8350407;28;19924;-73
2023/03/28 01:28:31;;;;;;;;;;;1.30;99.90;;;;;;8376080;28;20336;-73
2023/03/28 01:32:44;;;;;;;;;;;1.20;99.90;;;;;;8376587;28;20028;-73
2023/03/28 01:37:04;;;;;;;;;;;1.20;99.90;;;;;;8381698;28;19947;-73
2023/03/28 01:41:06;;;;;;;;;;;1.10;99.90;;;;;;8376118;28;20304;-73
2023/03/28 01:45:13;;;;;;;;;;;1.10;99.90;;;;;;8400607;28;20019;-73
2023/03/28 01:49:15;;;;;;;;;;;1.10;99.90;;;;;;8381910;28;19967;-74
2023/03/28 01:53:17;;;;;;;;;;;1.00;99.90;;;;;;8391431;28;20599;-73
2023/03/28 01:57:24;;;;;;;;;;;1.00;99.90;;;;;;8380045;28;19931;-73
2023/03/28 02:01:29;;;;;;;;;;;1.00;99.90;;;;;;8379179;28;19970;-73
2023/03/28 02:05:33;;;;;;;;;;;1.00;99.90;;;;;;8393625;28;19928;-74
2023/03/28 02:09:35;;;;;;;;;;;0.90;99.90;;;;;;8394506;28;19924;-73
2023/03/28 02:14:03;;;;;;;;;;;0.90;99.90;;;;;;8373026;28;19967;-74
2023/03/28 02:18:10;;;;;;;;;;;0.90;99.90;;;;;;8361678;28;19991;-73
2023/03/28 02:22:16;;;;;;;;;;;0.90;99.90;;;;;;8377876;28;19925;-73
2023/03/28 02:26:19;;;;;;;;;;;0.80;99.90;;;;;;8365952;28;19925;-73
2023/03/28 02:30:21;;;;;;;;;;;0.80;99.90;;;;;;8383215;28;19941;-73
2023/03/28 02:34:23;;;;;;;;;;;0.80;99.90;;;;;;8384473;28;19968;-73
2023/03/28 02:38:39;;;;;;;;;;;0.80;99.90;;;;;;8384773;28;20325;-74
2023/03/28 02:42:53;;;;;;;;;;;0.70;99.90;;;;;;8369854;28;19932;-73
2023/03/28 02:47:14;;;;;;;;;;;0.70;99.90;;;;;;8377993;28;20430;-73
2023/03/28 02:51:30;;;;;;;;;;;0.70;99.90;;;;;;8387655;28;19956;-73
2023/03/28 02:55:49;;;;;;;;;;;0.60;99.90;;;;;;8372677;28;19925;-73
2023/03/28 03:00:11;;;;;;;;;;;0.60;99.90;;;;;;8378685;28;19932;-73
2023/03/28 03:04:16;;;;;;;;;;;0.60;99.90;;;;;;8371023;28;19928;-74
2023/03/28 03:08:17;;;;;;;;;;;0.50;99.90;;;;;;8360615;28;19925;-73
2023/03/28 03:12:20;;;;;;;;;;;0.50;99.90;;;;;;8381940;28;20028;-73
2023/03/28 03:16:22;;;;;;;;;;;0.50;99.90;;;;;;8384451;28;19925;-73
2023/03/28 03:20:25;;;;;;;;;;;0.50;99.90;;;;;;8386635;28;19925;-73
2023/03/28 03:24:27;;;;;;;;;;;0.40;99.90;;;;;;8383657;28;19967;-73
2023/03/28 03:28:28;;;;;;;;;;;0.40;99.90;;;;;;8380392;28;19964;-73
2023/03/28 03:32:31;;;;;;;;;;;0.40;99.90;;;;;;8381155;28;19925;-73
2023/03/28 03:36:33;;;;;;;;;;;0.30;99.90;;;;;;8387092;28;19929;-73
2023/03/28 03:40:35;;;;;;;;;;;0.30;99.90;;;;;;8388640;28;19968;-73
2023/03/28 03:44:37;;;;;;;;;;;0.30;99.90;;;;;;8400375;28;19932;-73
2023/03/28 03:48:39;;;;;;;;;;;0.20;99.90;;;;;;8384253;28;19924;-73
2023/03/28 03:52:50;;;;;;;;;;;0.20;99.90;;;;;;8388750;28;19932;-73
2023/03/28 03:56:52;;;;;;;;;;;0.10;99.90;;;;;;8370523;28;20480;-73
2023/03/28 04:00:54;;;;;;;;;;;0.10;99.90;;;;;;8371885;28;20051;-73
2023/03/28 04:04:56;;;;;;;;;;;0.10;99.90;;;;;;8402423;28;19947;-73
2023/03/28 04:08:57;;;;;;;;;;;0.00;99.90;;;;;;8386110;28;19924;-73
2023/03/28 04:12:59;;;;;;;;;;;0.00;99.90;;;;;;8374360;28;20023;-73
2023/03/28 04:17:03;;;;;;;;;;;0.00;99.90;;;;;;8372701;28;19963;-73
2023/03/28 04:21:05;;;;;;;;;;;0.00;99.90;;;;;;8397975;28;19931;-73
2023/03/28 04:25:07;;;;;;;;;;;-0.10;99.90;;;;;;8392676;28;19928;-73
2023/03/28 04:29:09;;;;;;;;;;;-0.20;99.90;;;;;;8388770;28;19969;-73
2023/03/28 04:33:10;;;;;;;;;;;-0.20;99.90;;;;;;8376778;28;20015;-73
2023/03/28 04:37:14;;;;;;;;;;;-0.20;99.90;;;;;;8356899;28;19985;-73
2023/03/28 04:41:16;;;;;;;;;;;-0.20;99.90;;;;;;8376355;28;20368;-73
2023/03/28 04:45:18;;;;;;;;;;;-0.30;99.90;;;;;;8403115;28;20340;-73
2023/03/28 04:49:20;;;;;;;;;;;-0.30;99.90;;;;;;8379906;28;19928;-73
2023/03/28 04:53:22;;;;;;;;;;;-0.30;99.90;;;;;;8400956;28;20022;-73
2023/03/28 04:57:24;;;;;;;;;;;-0.30;99.90;;;;;;8374571;28;20053;-73
2023/03/28 05:01:26;;;;;;;;;;;-0.30;99.90;;;;;;8376445;28;19935;-73
2023/03/28 05:05:27;;;;;;;;;;;-0.40;99.90;;;;;;8396111;28;19985;-74
2023/03/28 05:09:29;;;;;;;;;;;-0.40;99.90;;;;;;8392656;28;19968;-73
2023/03/28 05:13:32;;;;;;;;;;;-0.40;99.90;;;;;;8389914;28;19944;-73
2023/03/28 05:17:33;;;;;;;;;;;-0.50;99.90;;;;;;8384623;28;19925;-73
2023/03/28 05:21:35;;;;;;;;;;;-0.50;99.90;;;;;;8387509;28;19929;-73
2023/03/28 05:25:37;;;;;;;;;;;-0.50;99.90;;;;;;8386973;28;19925;-73
2023/03/28 05:29:38;;;;;;;;;;;-0.50;99.90;;;;;;8382402;28;19924;-73
2023/03/28 05:33:42;;;;;;;;;;;-0.50;99.90;;;;;;8393657;28;21284;-73
2023/03/28 05:37:44;;;;;;;;;;;-0.50;99.90;;;;;;8396371;28;19924;-73
2023/03/28 05:41:47;;;;;;;;;;;-0.50;99.90;;;;;;8361006;28;19928;-73
2023/03/28 05:45:49;;;;;;;;;;;-0.50;99.90;;;;;;8387880;28;20261;-73
2023/03/28 05:49:50;;;;;;;;;;;-0.40;99.90;;;;;;8387610;28;20635;-73
2023/03/28 05:53:55;;;;;;;;;;;-0.40;99.90;;;;;;8384426;28;19972;-73
2023/03/28 05:57:56;;;;;;;;;;;-0.30;99.90;;;;;;8368956;28;20299;-73
2023/03/28 06:01:58;;;;;;;;;;;-0.20;99.90;;;;;;8390087;28;19938;-73
2023/03/28 06:06:00;;;;;;;;;;;-0.10;99.90;;;;;;8368505;28;19970;-73
2023/03/28 06:10:02;;;;;;;;;;;0.00;99.90;;;;;;8366887;28;19924;-73
2023/03/28 06:14:04;;;;;;;;;;;0.10;99.90;;;;;;8373757;28;19929;-73
2023/03/28 06:18:05;;;;;;;;;;;0.20;99.90;;;;;;8374068;28;19925;-73
2023/03/28 06:22:07;;;;;;;;;;;0.30;99.90;;;;;;8378823;28;19967;-73
2023/03/28 06:26:09;;;;;;;;;;;0.40;99.90;;;;;;8382354;28;20000;-73
2023/03/28 06:30:11;;;;;;;;;;;0.60;99.90;;;;;;8401438;28;20058;-73
2023/03/28 06:34:13;;;;;;;;;;;0.70;99.90;;;;;;8389563;28;20451;-73
2023/03/28 06:38:14;;;;;;;;;;;0.80;99.90;;;;;;8383927;28;19924;-73
2023/03/28 06:42:16;;;;;;;;;;;1.00;99.90;;;;;;8374784;28;19948;-73
2023/03/28 06:46:19;;;;;;;;;;;1.20;99.90;;;;;;8389914;28;19924;-73
2023/03/28 06:50:20;;;;;;;;;;;1.40;99.90;;;;;;8382565;28;19924;-73
2023/03/28 06:54:22;;;;;;;;;;;1.70;99.90;;;;;;8356990;28;20273;-73
2023/03/28 06:58:24;;;;;;;;;;;1.90;99.90;;;;;;8381052;28;19978;-74
2023/03/28 07:02:25;;;;;;;;;;;2.00;99.90;;;;;;8393434;28;20256;-74
2023/03/28 07:06:27;;;;;;;;;;;2.10;99.90;;;;;;8380064;28;19928;-73
2023/03/28 07:10:29;;;;;;;;;;;2.10;99.90;;;;;;8389376;28;19924;-73
2023/03/28 07:14:30;;;;;;;;;;;2.10;99.90;;;;;;8397845;28;19928;-73
2023/03/28 07:18:32;;;;;;;;;;;2.30;99.90;;;;;;8388177;28;19936;-74
2023/03/28 07:22:34;;;;;;;;;;;2.40;99.90;;;;;;8388880;28;19924;-73
2023/03/28 07:26:35;;;;;;;;;;;2.60;99.90;;;;;;8379779;28;19931;-73
2023/03/28 07:30:37;;;;;;;;;;;2.80;99.90;;;;;;8395890;28;19931;-73
2023/03/28 07:34:39;;;;;;;;;;;3.10;99.90;;;;;;8393078;28;19968;-73
2023/03/28 07:38:40;;;;;;;;;;;3.30;99.90;;;;;;8378712;28;19925;-74
2023/03/28 07:42:42;;;;;;;;;;;3.50;99.90;;;;;;8379554;28;20011;-74
2023/03/28 07:46:45;;;;;;;;;;;3.60;99.90;;;;;;8393849;28;19931;-73
2023/03/28 07:50:46;;;;;;;;;;;3.80;99.90;;;;;;8389623;28;19967;-74
2023/03/28 07:54:48;;;;;;;;;;;3.90;99.90;;;;;;8411220;28;19924;-73
2023/03/28 07:58:50;;;;;;;;;;;4.10;99.90;;;;;;8395735;28;19955;-73
2023/03/28 08:02:51;;;;;;;;;;;4.30;99.90;;;;;;8385762;28;19963;-74
2023/03/28 08:06:53;;;;;;;;;;;4.50;99.90;;;;;;8388401;28;19925;-73
2023/03/28 08:10:55;;;;;;;;;;;4.70;99.90;;;;;;8393221;28;20426;-74
2023/03/28 08:14:56;;;;;;;;;;;4.90;99.90;;;;;;8375231;28;19931;-73
2023/03/28 08:18:58;;;;;;;;;;;5.10;99.90;;;;;;8391618;28;19929;-73
2023/03/28 08:23:10;;;;;;;;;;;5.10;99.90;;;;;;8387094;28;19936;-73
2023/03/28 08:27:12;;;;;;;;;;;5.10;99.90;;;;;;8375374;28;19964;-73
2023/03/28 08:31:15;;;;;;;;;;;5.20;99.90;;;;;;8387594;28;19924;-73
2023/03/28 08:35:16;;;;;;;;;;;5.50;99.90;;;;;;8379217;28;19925;-74
2023/03/28 08:39:18;;;;;;;;;;;5.70;99.90;;;;;;8394943;28;19985;-73
2023/03/28 08:43:44;;;;;;;;;;;5.90;99.90;;;;;;8371740;28;19996;-73
2023/03/28 08:47:52;;;;;;;;;;;6.10;99.90;;;;;;8390075;28;20388;-74
2023/03/28 08:51:58;;;;;;;;;;;6.40;99.90;;;;;;8388402;28;19932;-73
2023/03/28 08:56:01;;;;;;;;;;;6.50;99.90;;;;;;8379194;28;19931;-74
2023/03/28 09:00:13;;;;;;;;;;;6.60;99.90;;;;;;8386264;28;20001;-73
2023/03/28 09:04:20;;;;;;;;;;;6.70;99.90;;;;;;8386655;28;20453;-74
2023/03/28 09:08:32;;;;;;;;;;;6.70;99.90;;;;;;8400167;28;19929;-73
2023/03/28 09:12:36;;;;;;;;;;;6.70;99.90;;;;;;8381760;28;19924;-74
2023/03/28 09:16:38;;;;;;;;;;;6.70;99.90;;;;;;8380619;28;19925;-74
2023/03/28 09:20:45;;;;;;;;;;;6.80;99.90;;;;;;8385204;28;20351;-74
2023/03/28 09:24:52;;;;;;;;;;;6.80;99.90;;;;;;8385641;28;20338;-73
2023/03/28 09:28:54;;;;;;;;;;;6.80;99.90;;;;;;8374203;28;19931;-73
2023/03/28 09:32:58;;;;;;;;;;;6.90;99.90;;;;;;8386549;28;19929;-73
2023/03/28 09:37:04;;;;;;;;;;;6.90;99.90;;;;;;8394696;28;19954;-73
2023/03/28 09:41:10;;;;;;;;;;;7.00;99.90;;;;;;8391245;28;19925;-74
2023/03/28 09:45:15;;;;;;;;;;;7.10;99.90;;;;;;8391574;28;19936;-74
2023/03/28 09:49:22;;;;;;;;;;;7.00;99.90;;;;;;8385992;28;20295;-73
2023/03/28 09:53:25;;;;;;;;;;;7.10;99.90;;;;;;8396131;28;19928;-74
2023/03/28 09:57:47;;;;;;;;;;;7.10;99.90;;;;;;8390588;28;19931;-74
2023/03/28 10:01:50;;;;;;;;;;;7.20;99.90;;;;;;8361986;28;20600;-74
2023/03/28 10:05:52;;;;;;;;;;;7.20;99.90;;;;;;8390547;28;20314;-74
2023/03/28 10:09:55;;;;;;;;;;;7.20;99.90;;;;;;8382021;28;19935;-74
2023/03/28 10:13:57;;;;;;;;;;;7.10;99.90;;;;;;8365068;28;19956;-74
2023/03/28 10:18:00;;;;;;;;;;;7.10;99.90;;;;;;8378726;28;20364;-74
2023/03/28 10:22:04;;;;;;;;;;;7.20;99.90;;;;;;8381501;28;19935;-75
2023/03/28 10:26:07;;;;;;;;;;;7.30;99.90;;;;;;8368373;28;19925;-74
2023/03/28 10:30:29;;;;;;;;;;;7.40;99.90;;;;;;8369405;28;20283;-74
2023/03/28 10:34:33;;;;;;;;;;;7.40;99.90;;;;;;8384909;28;19976;-74
2023/03/28 10:38:47;;;;;;;;;;;7.30;99.90;;;;;;8384781;28;20287;-74
2023/03/28 10:42:49;;;;;;;;;;;7.30;99.90;;;;;;8376680;28;19925;-74
2023/03/28 10:46:51;;;;;;;;;;;7.30;99.90;;;;;;8392282;28;19928;-74
2023/03/28 10:50:54;;;;;;;;;;;7.50;99.90;;;;;;8375627;28;19931;-74
2023/03/28 10:54:56;;;;;;;;;;;7.70;99.90;;;;;;8391707;28;19935;-75
2023/03/28 10:59:09;;;;;;;;;;;7.90;99.90;;;;;;8395270;28;20332;-74
2023/03/28 11:03:14;;;;;;;;;;;8.10;99.90;;;;;;8374888;28;20557;-74
2023/03/28 11:07:45;;;;;;;;;;;8.30;99.90;;;;;;8382639;28;19925;-75
2023/03/28 11:11:58;;;;;;;;;;;8.50;99.90;;;;;;8379254;28;19924;-74
2023/03/28 11:16:06;;;;;;;;;;;8.80;99.90;;;;;;8397124;28;19925;-74
2023/03/28 11:20:23;;;;;;;;;;;9.30;99.90;;;;;;8374828;28;19932;-75
2023/03/28 11:24:29;;;;;;;;;;;9.50;99.90;;;;;;8383612;28;19972;-75
2023/03/28 11:28:31;;;;;;;;;;;9.60;99.90;;;;;;8389806;28;19925;-74
2023/03/28 11:32:36;;;;;;;;;;;9.40;99.90;;;;;;8397130;28;20379;-75
2023/03/28 11:36:47;;;;;;;;;;;9.40;99.90;;;;;;8377200;28;19924;-75
2023/03/28 11:41:02;;;;;;;;;;;9.80;99.90;;;;;;8376159;28;19947;-74
2023/03/28 11:45:06;;;;;;;;;;;10.20;99.90;;;;;;8372162;28;19924;-74
2023/03/28 11:49:23;;;;;;;;;;;10.30;99.90;;;;;;8366075;28;19986;-75
2023/03/28 11:53:30;;;;;;;;;;;10.80;99.90;;;;;;8367648;28;19936;-75
2023/03/28 11:57:46;;;;;;;;;;;11.00;99.90;;;;;;8368139;28;19995;-73
2023/03/28 12:01:51;;;;;;;;;;;10.90;99.90;;;;;;8377759;28;19932;-73
2023/03/28 12:05:57;;;;;;;;;;;10.70;99.90;;;;;;8373345;28;20011;-73
2023/03/28 12:10:26;;;;;;;;;;;10.60;99.90;;;;;;8372064;28;19925;-73
2023/03/28 12:14:49;;;;;;;;;;;10.30;99.90;;;;;;8371261;28;19932;-73
2023/03/28 12:18:56;;;;;;;;;;;10.00;99.90;;;;;;8359720;28;19929;-73
2023/03/28 12:23:02;;;;;;;;;;;9.80;99.90;;;;;;8362531;28;22443;-73
2023/03/28 12:27:13;;;;;;;;;;;9.60;99.90;;;;;;8365128;28;19928;-73
2023/03/28 12:31:25;;;;;;;;;;;9.50;99.90;;;;;;8369941;28;20392;-73
2023/03/28 12:35:31;;;;;;;;;;;9.40;99.90;;;;;;8364220;28;19932;-73
2023/03/28 12:39:36;;;;;;;;;;;9.30;99.90;;;;;;8351034;28;19924;-72
2023/03/28 12:43:45;;;;;;;;;;;9.10;99.90;;;;;;8361760;28;20019;-73
2023/03/28 12:47:49;;;;;;;;;;;8.90;99.90;;;;;;8363355;28;20019;-74
2023/03/28 12:51:53;;;;;;;;;;;8.70;99.90;;;;;;8365567;28;19979;-73
2023/03/28 12:55:55;;;;;;;;;;;8.70;99.90;;;;;;8372992;28;19929;-73
2023/03/28 13:00:05;;;;;;;;;;;8.60;99.90;;;;;;8368759;28;19924;-74
2023/03/28 13:04:20;;;;;;;;;;;8.60;99.90;;;;;;8365508;28;19971;-73
2023/03/28 13:08:33;;;;;;;;;;;8.60;99.90;;;;;;8370905;28;20454;-73
2023/03/28 13:12:34;;;;;;;;;;;8.60;99.90;;;;;;8366108;28;19928;-73
2023/03/28 13:16:46;;;;;;;;;;;8.60;99.90;;;;;;8363902;28;20368;-73
2023/03/28 13:20:52;;;;;;;;;;;8.60;99.90;;;;;;8366852;28;20354;-73
2023/03/28 13:25:14;;;;;;;;;;;8.60;99.90;;;;;;8374322;28;19931;-73
2023/03/28 13:29:15;;;;;;;;;;;8.60;99.90;;;;;;8365454;28;19976;-73
2023/03/28 13:33:27;;;;;;;;;;;8.70;99.90;;;;;;8361940;28;19931;-73
2023/03/28 13:37:49;;;;;;;;;;;8.80;99.90;;;;;;8364996;28;19967;-73
2023/03/28 13:41:53;;;;;;;;;;;9.00;99.90;;;;;;8346634;28;19928;-73
2023/03/28 13:46:01;;;;;;;;;;;9.30;99.90;;;;;;8359971;28;19929;-73
2023/03/28 13:50:23;;;;;;;;;;;9.50;99.90;;;;;;8355036;28;19964;-73
2023/03/28 13:54:27;;;;;;;;;;;9.80;99.90;;;;;;8365193;28;19971;-73
2023/03/28 13:58:28;;;;;;;;;;;10.00;99.90;;;;;;8370825;28;19925;-74
2023/03/28 14:02:39;;;;;;;;;;;10.10;99.90;;;;;;8357714;28;20348;-73
2023/03/28 14:06:41;;;;;;;;;;;10.10;99.90;;;;;;8377421;28;19928;-73
2023/03/28 14:10:44;;;;;;;;;;;10.10;99.90;;;;;;8358879;28;19940;-73
2023/03/28 14:14:47;;;;;;;;;;;10.20;99.90;;;;;;8361191;28;19929;-73
2023/03/28 14:18:50;;;;;;;;;;;10.10;99.90;;;;;;8358827;28;20401;-73
2023/03/28 14:22:52;;;;;;;;;;;10.00;99.90;;;;;;8363169;28;19928;-73
2023/03/28 14:27:08;;;;;;;;;;;10.00;99.90;;;;;;8371121;28;19932;-73
2023/03/28 14:31:12;;;;;;;;;;;9.90;99.90;;;;;;8371500;28;19925;-72
2023/03/28 14:35:19;;;;;;;;;;;9.80;99.90;;;;;;8371814;28;19983;-73
2023/03/28 14:39:21;;;;;;;;;;;9.80;99.90;;;;;;8368253;28;20373;-73
2023/03/28 14:43:27;;;;;;;;;;;9.80;99.90;;;;;;8364144;28;20408;-73
2023/03/28 14:47:31;;;;;;;;;;;9.70;99.90;;;;;;8370975;28;19931;-73
2023/03/28 14:51:44;;;;;;;;;;;9.70;99.90;;;;;;8363264;28;19929;-73
2023/03/28 14:55:48;;;;;;;;;;;9.70;99.90;;;;;;8359050;28;19925;-73
2023/03/28 14:59:51;;;;;;;;;;;9.70;99.90;;;;;;8360595;28;19928;-73
2023/03/28 15:03:56;;;;;;;;;;;9.70;99.90;;;;;;8363254;28;19928;-73
2023/03/28 15:08:01;;;;;;;;;;;9.70;99.90;;;;;;8346756;28;19932;-74
2023/03/28 15:12:05;;;;;;;;;;;9.80;99.90;;;;;;8357779;28;19928;-73
2023/03/28 15:16:07;;;;;;;;;;;9.90;99.90;;;;;;8367234;28;19932;-74
2023/03/28 15:20:14;;;;;;;;;;;9.90;99.90;;;;;;8360130;28;19933;-74
2023/03/28 15:24:17;;;;;;;;;;;9.80;99.90;;;;;;8377650;28;19932;-73
2023/03/28 15:28:18;;;;;;;;;;;9.70;99.90;;;;;;8353171;28;20019;-73
2023/03/28 15:32:20;;;;;;;;;;;9.60;99.90;;;;;;8380813;28;19947;-73
2023/03/28 15:36:23;;;;;;;;;;;9.60;99.90;;;;;;8376286;28;20459;-73
2023/03/28 15:40:27;;;;;;;;;;;9.50;99.90;;;;;;8369706;28;20074;-73
2023/03/28 15:44:31;;;;;;;;;;;9.50;99.90;;;;;;8369320;28;19959;-73
2023/03/28 15:48:34;;;;;;;;;;;9.40;99.90;;;;;;8355468;28;19933;-73
2023/03/28 15:52:40;;;;;;;;;;;9.40;99.90;;;;;;8380483;28;20007;-73
2023/03/28 15:56:44;;;;;;;;;;;9.30;99.90;;;;;;8369648;28;20277;-74
2023/03/28 16:00:47;;;;;;;;;;;9.30;99.90;;;;;;8362575;28;19947;-73
2023/03/28 16:04:59;;;;;;;;;;;9.30;99.90;;;;;;8344982;28;20011;-73
2023/03/28 16:09:20;;;;;;;;;;;9.20;99.90;;;;;;8363068;28;19940;-73
2023/03/28 16:13:22;;;;;;;;;;;9.10;99.90;;;;;;8361470;28;24278;-73
2023/03/28 16:17:24;;;;;;;;;;;9.00;99.90;;;;;;8362727;28;19967;-73
2023/03/28 16:21:26;;;;;;;;;;;8.90;99.90;;;;;;8368644;28;20308;-73
2023/03/28 16:25:27;;;;;;;;;;;8.80;99.90;;;;;;8382547;28;19928;-73
2023/03/28 16:29:29;;;;;;;;;;;8.80;99.90;;;;;;8356026;28;19963;-73
2023/03/28 16:33:31;;;;;;;;;;;8.80;99.90;;;;;;8341192;28;19936;-73
2023/03/28 16:37:32;;;;;;;;;;;8.80;99.90;;;;;;8358921;28;19931;-74
2023/03/28 16:41:34;;;;;;;;;;;8.70;99.90;;;;;;8361828;28;19956;-74
2023/03/28 16:45:37;;;;;;;;;;;8.60;99.90;;;;;;8346339;28;19929;-74
2023/03/28 16:49:39;;;;;;;;;;;8.50;99.90;;;;;;8353974;28;20020;-73
2023/03/28 16:53:40;;;;;;;;;;;8.30;99.90;;;;;;8355614;28;20365;-73
2023/03/28 16:57:42;;;;;;;;;;;8.20;99.90;;;;;;8365586;28;19937;-73
2023/03/28 17:01:45;;;;;;;;;;;8.20;99.90;;;;;;8365325;28;19972;-73
2023/03/28 17:05:46;;;;;;;;;;;8.20;99.90;;;;;;8381994;28;19972;-74
2023/03/28 17:09:48;;;;;;;;;;;8.30;99.90;;;;;;8365287;28;19931;-73
2023/03/28 17:13:51;;;;;;;;;;;8.30;99.90;;;;;;8365919;28;19939;-74
2023/03/28 17:17:53;;;;;;;;;;;8.30;99.90;;;;;;8368970;28;20368;-73
2023/03/28 17:21:55;;;;;;;;;;;8.40;99.90;;;;;;8362249;28;20023;-73
2023/03/28 17:25:57;;;;;;;;;;;8.40;99.90;;;;;;8380057;28;19976;-73
2023/03/28 17:29:59;;;;;;;;;;;8.40;99.90;;;;;;8365671;28;20027;-74
2023/03/28 17:34:01;;;;;;;;;;;8.50;99.90;;;;;;8348746;28;19932;-73
2023/03/28 17:38:03;;;;;;;;;;;8.50;99.90;;;;;;8369332;28;19932;-73
2023/03/28 17:42:04;;;;;;;;;;;8.40;99.90;;;;;;8359836;28;20341;-73
2023/03/28 17:46:07;;;;;;;;;;;8.40;99.90;;;;;;8360979;28;19932;-73
2023/03/28 17:50:09;;;;;;;;;;;8.40;99.90;;;;;;8358402;28;19982;-74
2023/03/28 17:54:10;;;;;;;;;;;8.30;99.90;;;;;;8368683;28;19968;-73
2023/03/28 17:58:13;;;;;;;;;;;8.30;99.90;;;;;;8377848;28;19929;-73
2023/03/28 18:02:15;;;;;;;;;;;8.30;99.90;;;;;;8357082;28;20501;-74
2023/03/28 18:06:17;;;;;;;;;;;8.30;99.90;;;;;;8367450;28;19930;-73
2023/03/28 18:10:18;;;;;;;;;;;8.30;99.90;;;;;;8360702;28;19928;-73
2023/03/28 18:14:20;;;;;;;;;;;8.30;99.90;;;;;;8360053;28;19932;-74
2023/03/28 18:18:22;;;;;;;;;;;8.30;99.90;;;;;;8363402;28;19932;-73
2023/03/28 18:22:24;;;;;;;;;;;8.30;99.90;;;;;;8361048;28;20637;-73
2023/03/28 18:26:27;;;;;;;;;;;8.30;99.90;;;;;;8376210;28;19999;-73
2023/03/28 18:30:29;;;;;;;;;;;8.20;99.90;;;;;;8365143;28;19925;-73
2023/03/28 18:34:31;;;;;;;;;;;8.20;99.90;;;;;;8347434;28;19932;-74
2023/03/28 18:38:35;;;;;;;;;;;8.10;99.90;;;;;;8365944;28;20388;-73
2023/03/28 18:42:37;;;;;;;;;;;8.10;99.90;;;;;;8363884;28;19942;-73
2023/03/28 18:46:39;;;;;;;;;;;8.00;99.90;;;;;;8361411;28;19930;-74
2023/03/28 18:50:41;;;;;;;;;;;8.00;99.90;;;;;;8355123;28;19928;-73
2023/03/28 18:54:44;;;;;;;;;;;7.90;99.90;;;;;;8355583;28;19924;-73
2023/03/28 18:58:49;;;;;;;;;;;7.80;99.90;;;;;;8379107;28;19928;-73
2023/03/28 19:02:50;;;;;;;;;;;7.70;99.90;;;;;;8359993;28;20391;-74
2023/03/28 19:06:52;;;;;;;;;;;7.70;99.90;;;;;;8346875;28;19982;-73
2023/03/28 19:10:55;;;;;;;;;;;7.60;99.90;;;;;;8367959;28;19944;-74
2023/03/28 19:14:56;;;;;;;;;;;7.60;99.90;;;;;;8366120;28;19960;-73
2023/03/28 19:18:58;;;;;;;;;;;7.50;99.90;;;;;;8374784;28;19931;-73
2023/03/28 19:23:00;;;;;;;;;;;7.40;99.90;;;;;;8349382;28;19971;-73
2023/03/28 19:27:02;;;;;;;;;;;7.40;99.90;;;;;;8367496;28;20031;-74
2023/03/28 19:31:06;;;;;;;;;;;7.30;99.90;;;;;;8364237;28;19933;-73
2023/03/28 19:35:08;;;;;;;;;;;7.20;99.90;;;;;;8352280;28;19935;-73
2023/03/28 19:39:11;;;;;;;;;;;7.20;99.90;;;;;;8335040;28;19932;-74
2023/03/28 19:43:13;;;;;;;;;;;7.10;99.90;;;;;;8346475;28;20024;-73
2023/03/28 19:47:15;;;;;;;;;;;7.10;99.90;;;;;;8332761;28;20402;-73
2023/03/28 19:51:16;;;;;;;;;;;7.10;99.90;;;;;;8334011;28;20460;-73
2023/03/28 19:55:18;;;;;;;;;;;7.10;99.90;;;;;;8364238;28;19980;-74
2023/03/28 19:59:20;;;;;;;;;;;7.10;99.90;;;;;;8329796;28;19937;-74
2023/03/28 20:03:21;;;;;;;;;;;7.10;99.90;;;;;;8371463;28;19936;-73
2023/03/28 20:07:23;;;;;;;;;;;7.10;99.90;;;;;;8334207;28;19926;-73
2023/03/28 20:11:25;;;;;;;;;;;7.10;99.90;;;;;;8359060;28;20377;-73
2023/03/28 20:15:27;;;;;;;;;;;7.10;99.90;;;;;;8329261;28;20408;-73
2023/03/28 20:19:28;;;;;;;;;;;7.10;99.90;;;;;;8330646;28;19935;-74
2023/03/28 20:23:31;;;;;;;;;;;7.10;99.90;;;;;;8331324;28;19968;-74
2023/03/28 20:27:34;;;;;;;;;;;7.00;99.90;;;;;;8329940;28;19975;-73
2023/03/28 20:31:35;;;;;;;;;;;7.00;99.90;;;;;;8358684;28;19939;-73
2023/03/28 20:35:40;;;;;;;;;;;7.00;99.90;;;;;;8362798;28;19933;-73
2023/03/28 20:39:46;;;;;;;;;;;7.00;99.90;;;;;;8359987;28;19933;-73
2023/03/28 20:43:48;;;;;;;;;;;7.00;99.90;;;;;;8337996;28;20269;-73
2023/03/28 20:48:05;;;;;;;;;;;6.90;99.90;;;;;;8330437;28;20029;-73
2023/03/28 20:52:07;;;;;;;;;;;6.80;99.90;;;;;;8335633;28;19939;-73
2023/03/28 20:56:10;;;;;;;;;;;6.80;99.90;;;;;;8330626;28;19979;-73
2023/03/28 21:00:13;;;;;;;;;;;6.80;99.90;;;;;;8331331;28;19925;-73
2023/03/28 21:04:15;;;;;;;;;;;6.80;99.90;;;;;;8379632;28;19928;-73
2023/03/28 21:08:18;;;;;;;;;;;6.70;99.90;;;;;;8346965;28;19925;-73
2023/03/28 21:12:20;;;;;;;;;;;6.70;99.90;;;;;;8345156;28;20015;-73
2023/03/28 21:16:22;;;;;;;;;;;6.70;99.90;;;;;;8338335;28;19933;-73
2023/03/28 21:20:24;;;;;;;;;;;6.70;99.90;;;;;;8345644;28;19978;-73
2023/03/28 21:24:26;;;;;;;;;;;6.70;99.90;;;;;;8341322;28;19939;-73
2023/03/28 21:28:28;;;;;;;;;;;6.60;99.90;;;;;;8349780;28;19932;-73
2023/03/28 21:32:31;;;;;;;;;;;6.60;99.90;;;;;;8345468;28;19935;-72
2023/03/28 21:36:33;;;;;;;;;;;6.60;99.90;;;;;;8366702;28;20412;-73
2023/03/28 21:40:35;;;;;;;;;;;6.60;99.90;;;;;;8376790;28;20396;-74
2023/03/28 21:44:37;;;;;;;;;;;6.50;99.90;;;;;;8377888;28;19925;-73
2023/03/28 21:48:40;;;;;;;;;;;6.50;99.90;;;;;;8383799;28;19924;-73
2023/03/28 21:52:42;;;;;;;;;;;6.50;99.90;;;;;;8381855;28;19924;-73
2023/03/28 21:56:44;;;;;;;;;;;6.50;99.90;;;;;;8385550;28;20299;-73
2023/03/28 22:00:46;;;;;;;;;;;6.50;99.90;;;;;;8378862;28;19925;-73
2023/03/28 22:04:47;;;;;;;;;;;6.40;99.90;;;;;;8375566;28;19925;-73
2023/03/28 22:08:51;;;;;;;;;;;6.40;99.90;;;;;;8364716;28;19933;-73
2023/03/28 22:12:53;;;;;;;;;;;6.40;99.90;;;;;;8382007;28;19975;-74
2023/03/28 22:16:54;;;;;;;;;;;6.40;99.90;;;;;;8381457;28;19932;-74
2023/03/28 22:20:56;;;;;;;;;;;6.40;99.90;;;;;;8372958;28;19925;-73
2023/03/28 22:24:59;;;;;;;;;;;6.40;99.90;;;;;;8376835;28;19940;-73
2023/03/28 22:29:00;;;;;;;;;;;6.40;99.90;;;;;;8385898;28;19932;-73
2023/03/28 22:33:02;;;;;;;;;;;6.40;99.90;;;;;;8393344;28;20372;-73
2023/03/28 22:37:04;;;;;;;;;;;6.40;99.90;;;;;;8383341;28;19925;-73
2023/03/28 22:41:06;;;;;;;;;;;6.40;99.90;;;;;;8373146;28;20439;-73
2023/03/28 22:45:08;;;;;;;;;;;6.40;99.90;;;;;;8384009;28;19924;-73
2023/03/28 22:49:11;;;;;;;;;;;6.40;99.90;;;;;;8390220;28;20012;-73
2023/03/28 22:53:13;;;;;;;;;;;6.40;99.90;;;;;;8380944;28;20276;-73
2023/03/28 22:57:15;;;;;;;;;;;6.40;99.90;;;;;;8396951;28;20288;-73
2023/03/28 23:01:17;;;;;;;;;;;6.40;99.90;;;;;;8385065;28;19929;-73
2023/03/28 23:05:19;;;;;;;;;;;6.30;99.90;;;;;;8382574;28;19979;-73
2023/03/28 23:09:22;;;;;;;;;;;6.30;99.90;;;;;;8378461;28;19931;-73
2023/03/28 23:13:25;;;;;;;;;;;6.30;99.90;;;;;;8378759;28;20434;-73
2023/03/28 23:17:27;;;;;;;;;;;6.30;99.90;;;;;;8392877;28;20277;-73
2023/03/28 23:21:29;;;;;;;;;;;6.30;99.90;;;;;;8365258;28;19935;-73
2023/03/28 23:25:31;;;;;;;;;;;6.30;99.90;;;;;;8394593;28;19928;-73
2023/03/28 23:29:33;;;;;;;;;;;6.30;99.90;;;;;;8381297;28;20015;-73
2023/03/28 23:33:35;;;;;;;;;;;6.30;99.90;;;;;;8378601;28;19933;-73
2023/03/28 23:37:37;;;;;;;;;;;6.30;99.90;;;;;;8380491;28;19928;-73
2023/03/28 23:41:39;;;;;;;;;;;6.40;99.90;;;;;;8377595;28;19925;-73
2023/03/28 23:45:42;;;;;;;;;;;6.40;99.90;;;;;;8384524;28;19939;-73
2023/03/28 23:49:43;;;;;;;;;;;6.40;99.90;;;;;;8388386;28;20296;-73
2023/03/28 23:53:45;;;;;;;;;;;6.40;99.90;;;;;;8390749;28;19980;-73
2023/03/28 23:57:47;;;;;;;;;;;6.40;99.90;;;;;;8371099;28;19971;-73
